createdAt,value
2019-03-21T00:01:37.009Z,8.43
2019-03-21T00:04:09.126Z,7.95
2019-03-21T00:06:38.665Z,8.20
2019-03-21T00:09:10.424Z,8.93
2019-03-21T00:11:43.011Z,7.57
2019-03-21T00:14:15.869Z,9.37
2019-03-21T00:16:45.384Z,8.60
2019-03-21T00:19:15.246Z,9.30
2019-03-21T00:21:44.740Z,8.93
2019-03-21T00:24:14.566Z,8.00
2019-03-21T00:26:44.024Z,8.78
2019-03-21T00:29:13.992Z,8.43
2019-03-21T00:31:43.474Z,8.70
2019-03-21T00:34:13.434Z,8.63
2019-03-21T00:36:42.577Z,9.73
2019-03-21T00:39:12.131Z,9.17
2019-03-21T00:41:41.768Z,9.03
2019-03-21T00:44:18.050Z,8.20
2019-03-21T00:46:45.131Z,8.90
2019-03-21T00:49:15.004Z,7.17
2019-03-21T00:51:44.454Z,8.57
2019-03-21T00:54:14.554Z,7.50
2019-03-21T00:56:44.119Z,8.10
2019-03-21T00:59:13.924Z,8.07
2019-03-21T01:01:43.471Z,7.40
2019-03-21T01:04:13.436Z,8.30
2019-03-21T01:06:42.814Z,9.07
2019-03-21T01:09:14.830Z,8.93
2019-03-21T01:11:44.279Z,7.93
2019-03-21T01:14:13.978Z,8.23
2019-03-21T01:16:43.594Z,8.50
2019-03-21T01:19:13.337Z,7.70
2019-03-21T01:21:43.628Z,7.75
2019-03-21T01:24:13.592Z,8.90
2019-03-21T01:26:43.034Z,7.97
2019-03-21T01:29:13.233Z,8.50
2019-03-21T01:31:43.891Z,8.15
2019-03-21T01:34:13.961Z,9.57
2019-03-21T01:36:43.420Z,7.37
2019-03-21T01:39:13.044Z,8.33
2019-03-21T01:41:42.468Z,7.40
2019-03-21T01:44:12.561Z,7.97
2019-03-21T01:46:41.993Z,7.37
2019-03-21T01:49:11.603Z,7.47
2019-03-21T01:51:41.309Z,6.17
2019-03-21T01:54:10.800Z,7.07
2019-03-21T01:56:40.228Z,7.27
2019-03-21T01:59:09.823Z,7.67
2019-03-21T02:01:39.457Z,7.87
2019-03-21T02:04:09.090Z,8.30
2019-03-21T02:06:38.560Z,8.40
2019-03-21T02:09:08.765Z,8.10
2019-03-21T02:11:38.878Z,8.73
2019-03-21T02:14:08.513Z,8.00
2019-03-21T02:16:37.931Z,7.80
2019-03-21T02:19:07.526Z,8.77
2019-03-21T02:21:37.007Z,7.47
2019-03-21T02:24:06.601Z,8.37
2019-03-21T02:26:36.075Z,8.00
2019-03-21T02:29:05.552Z,7.50
2019-03-21T02:31:35.300Z,7.47
2019-03-21T02:34:05.494Z,8.67
2019-03-21T02:36:34.939Z,7.12
2019-03-21T02:39:05.437Z,7.60
2019-03-21T02:41:34.894Z,7.53
2019-03-21T02:44:06.527Z,8.00
2019-03-21T02:46:36.038Z,7.00
2019-03-21T02:49:05.504Z,6.70
2019-03-21T02:51:35.043Z,6.40
2019-03-21T02:54:04.598Z,7.10
2019-03-21T02:56:33.899Z,6.60
2019-03-21T02:59:03.671Z,7.03
2019-03-21T03:01:33.124Z,6.67
2019-03-21T03:04:02.754Z,7.37
2019-03-21T03:06:34.152Z,7.10
2019-03-21T03:09:05.291Z,6.97
2019-03-21T03:11:34.778Z,7.30
2019-03-21T03:14:04.825Z,6.87
2019-03-21T03:16:34.387Z,7.15
2019-03-21T03:19:04.231Z,6.97
2019-03-21T03:21:33.734Z,6.45
2019-03-21T03:24:03.275Z,6.53
2019-03-21T03:26:32.732Z,6.30
2019-03-21T03:29:02.278Z,6.87
2019-03-21T03:31:31.900Z,6.40
2019-03-21T03:34:01.416Z,6.30
2019-03-21T03:36:31.124Z,6.80
2019-03-21T03:39:00.682Z,7.03
2019-03-21T03:41:30.148Z,6.30
2019-03-21T03:43:59.865Z,6.70
2019-03-21T03:46:28.764Z,6.83
2019-03-21T03:48:58.270Z,7.62
2019-03-21T03:51:27.818Z,7.07
2019-03-21T03:53:57.328Z,6.83
2019-03-21T03:56:26.931Z,6.80
2019-03-21T03:58:59.504Z,7.00
2019-03-21T04:01:29.225Z,7.00
2019-03-21T04:03:58.600Z,6.42
2019-03-21T04:06:28.140Z,7.13
2019-03-21T04:08:57.598Z,6.90
2019-03-21T04:11:27.197Z,8.20
2019-03-21T04:13:56.639Z,7.33
2019-03-21T04:16:27.683Z,7.40
2019-03-21T04:18:58.762Z,7.30
2019-03-21T04:21:28.240Z,7.70
2019-03-21T04:23:59.783Z,7.50
2019-03-21T04:26:32.417Z,6.67
2019-03-21T04:29:01.996Z,7.00
2019-03-21T04:31:31.616Z,6.70
2019-03-21T04:34:02.677Z,7.58
2019-03-21T04:36:33.157Z,6.55
2019-03-21T04:39:02.610Z,6.60
2019-03-21T04:41:32.171Z,6.90
2019-03-21T04:44:01.782Z,6.60
2019-03-21T04:46:31.329Z,7.30
2019-03-21T04:49:00.979Z,7.47
2019-03-21T04:51:30.782Z,7.00
2019-03-21T04:54:00.343Z,7.53
2019-03-21T04:56:30.376Z,8.40
2019-03-21T04:59:00.025Z,8.23
2019-03-21T05:01:29.576Z,9.30
2019-03-21T05:03:59.046Z,8.03
2019-03-21T05:06:28.514Z,7.87
2019-03-21T05:08:59.673Z,7.53
2019-03-21T05:11:29.115Z,7.10
2019-03-21T05:13:58.600Z,8.00
2019-03-21T05:16:28.224Z,7.13
2019-03-21T05:18:59.677Z,7.83
2019-03-21T05:21:29.130Z,7.35
2019-03-21T05:23:58.730Z,6.90
2019-03-21T05:26:28.267Z,7.75
2019-03-21T05:28:57.770Z,7.27
2019-03-21T05:31:30.868Z,7.70
2019-03-21T05:34:00.432Z,7.62
2019-03-21T05:36:30.120Z,7.77
2019-03-21T05:39:00.653Z,8.23
2019-03-21T05:41:30.185Z,7.90
2019-03-21T05:44:02.836Z,8.05
2019-03-21T05:46:33.030Z,8.83
2019-03-21T05:49:02.654Z,7.87
2019-03-21T05:51:32.106Z,7.30
2019-03-21T05:54:01.751Z,8.47
2019-03-21T05:56:31.358Z,8.57
2019-03-21T05:59:01.088Z,8.50
2019-03-21T06:01:30.607Z,8.03
2019-03-21T06:04:00.210Z,7.53
2019-03-21T06:06:32.774Z,7.87
2019-03-21T06:09:01.806Z,6.67
2019-03-21T06:11:31.409Z,7.80
2019-03-21T06:14:01.066Z,6.00
2019-03-21T06:16:37.677Z,6.28
2019-03-21T06:19:06.999Z,6.58
2019-03-21T06:21:42.847Z,6.00
2019-03-21T06:24:15.542Z,5.80
2019-03-21T06:26:50.312Z,5.67
2019-03-21T06:29:19.583Z,5.80
2019-03-21T06:31:48.792Z,6.33
2019-03-21T06:34:18.435Z,6.80
2019-03-21T06:36:47.929Z,6.37
2019-03-21T06:39:17.432Z,6.57
2019-03-21T06:41:46.980Z,7.10
2019-03-21T06:44:16.508Z,6.17
2019-03-21T06:46:49.644Z,6.20
2019-03-21T06:49:19.299Z,7.67
2019-03-21T06:51:48.784Z,6.40
2019-03-21T06:54:18.434Z,6.20
2019-03-21T06:56:47.897Z,7.00
2019-03-21T06:59:17.239Z,5.93
2019-03-21T07:01:46.586Z,7.07
2019-03-21T07:04:16.066Z,6.40
2019-03-21T07:06:45.619Z,6.67
2019-03-21T07:09:15.160Z,7.47
2019-03-21T07:11:44.704Z,6.93
2019-03-21T07:14:14.246Z,6.55
2019-03-21T07:16:43.757Z,7.27
2019-03-21T07:19:13.218Z,6.63
2019-03-21T07:21:42.882Z,7.17
2019-03-21T07:24:12.627Z,7.37
2019-03-21T07:29:22.303Z,7.27
2019-03-21T07:31:51.569Z,7.30
2019-03-21T07:34:21.095Z,7.10
2019-03-21T07:36:50.758Z,6.70
2019-03-21T07:39:20.357Z,6.03
2019-03-21T07:41:49.681Z,5.90
2019-03-21T07:44:19.129Z,5.77
2019-03-21T07:46:48.639Z,5.97
2019-03-21T07:49:18.243Z,5.60
2019-03-21T07:51:47.737Z,5.70
2019-03-21T07:54:17.243Z,5.37
2019-03-21T07:56:46.806Z,4.90
2019-03-21T07:59:16.353Z,6.33
2019-03-21T08:01:45.914Z,5.77
2019-03-21T08:04:15.573Z,6.07
2019-03-21T08:06:44.929Z,5.40
2019-03-21T08:09:14.452Z,5.50
2019-03-21T08:11:45.481Z,4.90
2019-03-21T08:14:15.006Z,5.17
2019-03-21T08:16:44.495Z,5.30
2019-03-21T08:19:13.959Z,5.03
2019-03-21T08:21:43.442Z,4.40
2019-03-21T08:24:13.003Z,4.20
2019-03-21T08:26:42.557Z,5.10
2019-03-21T08:29:12.087Z,4.65
2019-03-21T08:31:41.737Z,5.07
2019-03-21T08:34:11.323Z,4.15
2019-03-21T08:36:40.960Z,5.30
2019-03-21T08:39:10.919Z,5.40
2019-03-21T08:41:40.453Z,4.67
2019-03-21T08:44:10.086Z,4.80
2019-03-21T08:46:39.745Z,5.20
2019-03-21T08:49:09.913Z,5.10
2019-03-21T08:51:39.584Z,5.40
2019-03-21T08:54:09.673Z,4.87
2019-03-21T08:56:39.230Z,6.12
2019-03-21T08:59:09.404Z,6.07
2019-03-21T09:01:38.866Z,5.80
2019-03-21T09:04:08.370Z,5.80
2019-03-21T09:06:37.806Z,5.60
2019-03-21T09:09:08.656Z,6.17
2019-03-21T09:11:38.206Z,5.57
2019-03-21T09:14:07.800Z,6.07
2019-03-21T09:16:37.206Z,5.93
2019-03-21T09:19:06.690Z,6.60
2019-03-21T09:21:36.174Z,5.60
2019-03-21T09:24:05.704Z,6.40
2019-03-21T09:26:35.204Z,6.53
2019-03-21T09:29:04.722Z,6.17
2019-03-21T09:31:34.182Z,6.10
2019-03-21T09:34:03.752Z,6.20
2019-03-21T09:36:33.487Z,6.53
2019-03-21T09:39:04.402Z,5.57
2019-03-21T09:41:33.865Z,5.70
2019-03-21T09:44:03.442Z,5.43
2019-03-21T09:46:33.063Z,5.60
2019-03-21T09:49:02.515Z,5.62
2019-03-21T09:51:32.141Z,6.23
2019-03-21T09:54:09.685Z,5.40
2019-03-21T09:56:33.036Z,4.70
2019-03-21T09:59:02.641Z,7.30
2019-03-21T10:01:32.509Z,6.30
2019-03-21T10:04:01.981Z,4.60
2019-03-21T10:06:31.669Z,5.20
2019-03-21T10:09:01.423Z,5.50
2019-03-21T10:11:31.011Z,5.13
2019-03-21T10:14:00.637Z,4.87
2019-03-21T10:16:30.334Z,5.10
2019-03-21T10:18:59.975Z,4.50
2019-03-21T10:21:29.681Z,4.42
2019-03-21T10:23:59.142Z,5.07
2019-03-21T10:26:28.758Z,5.50
2019-03-21T10:28:58.239Z,5.55
2019-03-21T10:31:27.708Z,4.80
2019-03-21T10:33:57.165Z,4.60
2019-03-21T10:36:26.653Z,3.60
2019-03-21T10:38:56.121Z,3.67
2019-03-21T10:41:25.621Z,3.93
2019-03-21T10:43:55.081Z,3.80
2019-03-21T10:46:24.632Z,3.40
2019-03-21T10:48:54.097Z,3.98
2019-03-21T10:51:23.653Z,4.00
2019-03-21T10:53:53.133Z,3.53
2019-03-21T10:56:22.756Z,3.55
2019-03-21T10:58:52.341Z,2.60
2019-03-21T11:01:22.699Z,3.30
2019-03-21T11:03:52.837Z,4.03
2019-03-21T11:06:22.820Z,2.73
2019-03-21T11:08:52.972Z,3.17
2019-03-21T11:11:23.324Z,3.47
2019-03-21T11:13:53.660Z,3.03
2019-03-21T11:16:23.699Z,3.30
2019-03-21T11:18:53.862Z,4.55
2019-03-21T11:21:24.031Z,3.30
2019-03-21T11:23:53.508Z,3.30
2019-03-21T11:26:22.694Z,3.52
2019-03-21T11:28:52.312Z,3.60
2019-03-21T11:31:21.850Z,2.97
2019-03-21T11:33:51.183Z,3.57
2019-03-21T11:36:20.816Z,3.70
2019-03-21T11:38:50.826Z,3.77
2019-03-21T11:41:21.143Z,3.12
2019-03-21T11:43:50.788Z,3.60
2019-03-21T11:49:11.006Z,4.10
2019-03-21T11:51:40.623Z,4.15
2019-03-21T11:54:10.684Z,4.50
2019-03-21T11:56:40.295Z,3.30
2019-03-21T11:59:10.495Z,4.20
2019-03-21T12:01:39.952Z,3.97
2019-03-21T12:04:10.044Z,3.75
2019-03-21T12:06:41.852Z,3.93
2019-03-21T12:09:11.688Z,3.67
2019-03-21T12:11:41.389Z,4.20
2019-03-21T12:14:11.074Z,4.00
2019-03-21T12:16:40.577Z,4.78
2019-03-21T12:19:10.435Z,4.17
2019-03-21T12:21:40.029Z,4.37
2019-03-21T12:24:09.897Z,4.07
2019-03-21T12:26:39.500Z,4.30
2019-03-21T12:29:09.435Z,4.37
2019-03-21T12:31:38.864Z,4.80
2019-03-21T12:34:09.942Z,4.47
2019-03-21T12:36:39.493Z,4.20
2019-03-21T12:39:09.584Z,4.77
2019-03-21T12:41:39.084Z,5.30
2019-03-21T12:44:08.797Z,4.60
2019-03-21T12:46:38.221Z,5.92
2019-03-21T12:49:08.265Z,7.43
2019-03-21T12:51:37.672Z,5.30
2019-03-21T12:54:07.490Z,5.57
2019-03-21T12:56:36.869Z,5.33
2019-03-21T12:59:06.433Z,4.70
2019-03-21T13:01:35.894Z,4.60
2019-03-21T13:04:05.452Z,4.80
2019-03-21T13:06:34.920Z,5.17
2019-03-21T13:09:07.376Z,5.17
2019-03-21T13:11:36.811Z,4.00
2019-03-21T13:14:06.372Z,4.53
2019-03-21T13:16:35.900Z,4.47
2019-03-21T13:19:05.450Z,4.30
2019-03-21T13:21:34.995Z,4.70
2019-03-21T13:24:04.525Z,3.90
2019-03-21T13:26:34.099Z,4.47
2019-03-21T13:29:03.663Z,4.47
2019-03-21T13:31:33.894Z,3.93
2019-03-21T13:34:03.376Z,4.00
2019-03-21T13:36:32.839Z,4.60
2019-03-21T13:39:02.358Z,4.80
2019-03-21T13:41:31.848Z,5.43
2019-03-21T13:44:01.398Z,5.37
2019-03-21T13:46:30.957Z,5.03
2019-03-21T13:49:00.508Z,4.67
2019-03-21T13:51:30.935Z,5.40
2019-03-21T13:54:00.580Z,5.33
2019-03-21T13:56:38.033Z,5.15
2019-03-21T13:59:01.483Z,5.75
2019-03-21T14:01:31.374Z,6.45
2019-03-21T14:04:01.944Z,5.80
2019-03-21T14:06:31.639Z,4.80
2019-03-21T14:09:01.231Z,5.90
2019-03-21T14:11:30.828Z,5.47
2019-03-21T14:14:00.402Z,4.87
2019-03-21T14:16:29.931Z,4.33
2019-03-21T14:18:59.385Z,5.33
2019-03-21T14:21:28.977Z,5.90
2019-03-21T14:23:58.428Z,4.73
2019-03-21T14:26:27.990Z,4.67
2019-03-21T14:28:57.450Z,4.67
2019-03-21T14:31:27.063Z,5.73
2019-03-21T14:33:56.545Z,5.50
2019-03-21T14:36:26.030Z,4.77
2019-03-21T14:38:55.498Z,3.60
2019-03-21T14:41:25.834Z,4.72
2019-03-21T14:43:55.408Z,5.23
2019-03-21T14:46:25.002Z,5.62
2019-03-21T14:48:54.466Z,5.13
2019-03-21T14:51:23.976Z,5.30
2019-03-21T14:53:53.527Z,6.00
2019-03-21T14:56:23.025Z,5.53
2019-03-21T14:58:52.668Z,6.40
2019-03-21T15:01:22.639Z,4.50
2019-03-21T15:03:52.185Z,5.30
2019-03-21T15:06:21.679Z,5.92
2019-03-21T15:08:51.209Z,6.63
2019-03-21T15:12:00.922Z,7.00
2019-03-21T15:14:51.410Z,6.57
2019-03-21T15:17:21.067Z,6.20
2019-03-21T15:19:50.914Z,6.45
2019-03-21T15:25:16.833Z,6.53
2019-03-21T15:27:46.412Z,6.97
2019-03-21T15:30:18.494Z,8.00
2019-03-21T15:32:48.161Z,7.70
2019-03-21T15:35:19.158Z,6.83
2019-03-21T15:37:48.655Z,6.57
2019-03-21T15:40:18.180Z,6.80
2019-03-21T15:42:47.734Z,6.83
2019-03-21T15:45:23.333Z,6.30
2019-03-21T15:47:49.180Z,5.60
2019-03-21T15:50:21.579Z,6.47
2019-03-21T15:52:51.202Z,5.50
2019-03-21T15:55:20.724Z,5.90
2019-03-21T15:57:50.311Z,6.27
2019-03-21T16:00:22.945Z,6.37
2019-03-21T16:02:52.442Z,5.80
2019-03-21T16:05:21.957Z,5.00
2019-03-21T16:07:51.591Z,6.03
2019-03-21T16:10:21.002Z,5.27
2019-03-21T16:12:50.649Z,7.00
2019-03-21T16:15:20.224Z,5.50
2019-03-21T16:17:49.799Z,4.97
2019-03-21T16:20:19.378Z,6.12
2019-03-21T16:22:48.930Z,5.80
2019-03-21T16:25:18.456Z,6.27
2019-03-21T16:27:50.154Z,5.30
2019-03-21T16:30:19.712Z,5.17
2019-03-21T16:32:49.470Z,5.50
2019-03-21T16:35:18.936Z,5.50
2019-03-21T16:37:48.491Z,6.20
2019-03-21T16:40:18.133Z,4.95
2019-03-21T16:42:47.634Z,5.53
2019-03-21T16:45:17.245Z,5.90
2019-03-21T16:47:46.799Z,6.00
2019-03-21T16:50:16.424Z,5.30
2019-03-21T16:52:46.034Z,6.03
2019-03-21T16:55:15.758Z,5.70
2019-03-21T16:57:45.238Z,5.00
2019-03-21T17:00:18.019Z,5.20
2019-03-21T17:02:48.280Z,6.30
2019-03-21T17:05:17.837Z,6.00
2019-03-21T17:07:47.327Z,5.80
2019-03-21T17:10:17.734Z,5.53
2019-03-21T17:12:47.293Z,5.60
2019-03-21T17:15:16.825Z,5.57
2019-03-21T17:17:46.294Z,5.27
2019-03-21T17:20:16.025Z,5.43
2019-03-21T17:22:45.496Z,5.37
2019-03-21T17:25:15.205Z,5.40
2019-03-21T17:27:44.683Z,6.03
2019-03-21T17:30:15.823Z,5.90
2019-03-21T17:32:45.316Z,5.53
2019-03-21T17:35:14.996Z,5.10
2019-03-21T17:37:44.554Z,4.90
2019-03-21T17:40:14.348Z,6.30
2019-03-21T17:42:43.997Z,5.80
2019-03-21T17:45:14.496Z,5.50
2019-03-21T17:47:44.346Z,6.30
2019-03-21T17:50:15.523Z,5.60
2019-03-21T17:52:45.110Z,6.03
2019-03-21T17:55:14.837Z,6.13
2019-03-21T17:57:44.357Z,5.93
2019-03-21T18:00:17.595Z,5.90
2019-03-21T18:02:47.303Z,6.60
2019-03-21T18:05:16.889Z,7.25
2019-03-21T18:07:46.577Z,6.30
2019-03-21T18:10:19.205Z,6.33
2019-03-21T18:12:48.754Z,6.08
2019-03-21T18:15:18.078Z,7.10
2019-03-21T18:17:47.545Z,6.00
2019-03-21T18:20:17.026Z,6.17
2019-03-21T18:22:46.506Z,6.47
2019-03-21T18:25:16.275Z,6.33
2019-03-21T18:27:45.851Z,5.70
2019-03-21T18:30:36.201Z,6.43
2019-03-21T18:33:05.728Z,6.22
2019-03-21T18:35:36.164Z,5.20
2019-03-21T18:38:05.700Z,5.90
2019-03-21T18:40:35.416Z,5.05
2019-03-21T18:43:05.024Z,5.50
2019-03-21T18:45:34.532Z,6.03
2019-03-21T18:48:04.129Z,4.97
2019-03-21T18:50:33.704Z,5.40
2019-03-21T18:53:03.229Z,5.40
2019-03-21T18:55:34.661Z,5.03
2019-03-21T18:58:03.905Z,5.60
2019-03-21T19:00:33.396Z,5.10
2019-03-21T19:03:02.925Z,4.87
2019-03-21T19:05:34.054Z,5.57
2019-03-21T19:08:03.635Z,5.00
2019-03-21T19:10:33.094Z,5.20
2019-03-21T19:13:02.558Z,5.45
2019-03-21T19:15:32.035Z,5.17
2019-03-21T19:18:01.490Z,5.13
2019-03-21T19:20:31.102Z,4.90
2019-03-21T19:23:00.562Z,4.77
2019-03-21T19:25:30.184Z,5.70
2019-03-21T19:27:59.754Z,5.23
2019-03-21T19:30:29.471Z,5.20
2019-03-21T19:32:59.076Z,5.07
2019-03-21T19:35:28.631Z,6.27
2019-03-21T19:37:58.591Z,5.10
2019-03-21T19:40:30.647Z,5.87
2019-03-21T19:43:02.608Z,5.50
2019-03-21T19:45:33.717Z,5.40
2019-03-21T19:48:07.540Z,5.50
2019-03-21T19:50:37.155Z,5.97
2019-03-21T19:53:06.803Z,6.17
2019-03-21T19:55:36.346Z,5.80
2019-03-21T19:58:05.875Z,5.43
2019-03-21T20:00:35.253Z,5.83
2019-03-21T20:03:05.041Z,5.67
2019-03-21T20:05:34.749Z,5.95
2019-03-21T20:08:04.461Z,6.23
2019-03-21T20:10:33.923Z,7.70
2019-03-21T20:13:03.193Z,7.27
2019-03-21T20:15:32.725Z,5.78
2019-03-21T20:18:02.387Z,6.53
2019-03-21T20:20:31.653Z,6.90
2019-03-21T20:23:01.265Z,8.30
2019-03-21T20:25:42.247Z,7.42
2019-03-21T20:28:02.460Z,8.50
2019-03-21T20:30:32.057Z,8.10
2019-03-21T20:33:01.605Z,8.87
2019-03-21T20:35:31.223Z,7.93
2019-03-21T20:38:00.863Z,7.80
2019-03-21T20:40:30.501Z,8.27
2019-03-21T20:43:00.097Z,8.27
2019-03-21T20:45:29.729Z,8.90
2019-03-21T20:47:59.218Z,7.73
2019-03-21T20:50:28.664Z,8.67
2019-03-21T20:52:58.178Z,8.13
2019-03-21T20:55:27.712Z,8.30
2019-03-21T20:57:57.293Z,9.40
2019-03-21T21:00:26.759Z,7.47
2019-03-21T21:02:56.401Z,8.07
2019-03-21T21:05:26.007Z,9.65
2019-03-21T21:07:55.609Z,8.80
2019-03-21T21:10:25.197Z,9.00
2019-03-21T21:12:54.664Z,8.83
2019-03-21T21:15:24.232Z,9.23
2019-03-21T21:17:53.796Z,8.60
2019-03-21T21:20:23.260Z,9.17
2019-03-21T21:22:52.768Z,8.60
2019-03-21T21:25:22.115Z,9.10
2019-03-21T21:27:51.723Z,8.97
2019-03-21T21:30:22.409Z,8.83
2019-03-21T21:32:52.038Z,9.60
2019-03-21T21:35:21.578Z,8.50
2019-03-21T21:37:51.116Z,9.48
2019-03-21T21:40:20.795Z,9.40
2019-03-21T21:42:50.519Z,9.57
2019-03-21T21:45:20.110Z,8.50
2019-03-21T21:47:49.356Z,9.50
2019-03-21T21:50:18.979Z,9.83
2019-03-21T21:52:48.813Z,9.60
2019-03-21T21:55:18.179Z,9.90
2019-03-21T21:57:47.657Z,9.63
2019-03-21T22:00:17.766Z,9.67
2019-03-21T22:02:47.372Z,10.97
2019-03-21T22:05:16.826Z,10.72
2019-03-21T22:07:46.389Z,9.43
2019-03-21T22:10:16.713Z,10.37
2019-03-21T22:12:46.330Z,10.50
2019-03-21T22:15:16.180Z,9.83
2019-03-21T22:17:45.739Z,10.10
2019-03-21T22:20:16.475Z,10.27
2019-03-21T22:22:46.079Z,10.20
2019-03-21T22:25:16.869Z,9.40
2019-03-21T22:27:46.445Z,10.30
2019-03-21T22:30:18.147Z,9.63
2019-03-21T22:32:47.877Z,10.10
2019-03-21T22:35:17.604Z,10.70
2019-03-21T22:37:47.128Z,9.25
2019-03-21T22:40:18.140Z,9.70
2019-03-21T22:42:47.629Z,9.03
2019-03-21T22:45:18.026Z,9.97
2019-03-21T22:47:50.331Z,9.90
2019-03-21T22:50:18.876Z,11.08
2019-03-21T22:52:48.353Z,9.37
2019-03-21T22:55:17.934Z,9.90
2019-03-21T22:57:47.570Z,10.85
2019-03-21T23:00:20.398Z,10.10
2019-03-21T23:02:50.041Z,10.50
2019-03-21T23:05:20.750Z,10.10
2019-03-21T23:07:50.401Z,10.23
2019-03-21T23:10:19.992Z,9.58
2019-03-21T23:12:50.029Z,9.90
2019-03-21T23:15:19.592Z,9.23
2019-03-21T23:17:49.111Z,9.80
2019-03-21T23:20:18.678Z,9.47
2019-03-21T23:22:48.157Z,9.53
2019-03-21T23:25:17.935Z,9.27
2019-03-21T23:27:47.485Z,9.20
2019-03-21T23:30:18.069Z,9.33
2019-03-21T23:32:47.735Z,9.90
2019-03-21T23:35:17.419Z,9.67
2019-03-21T23:37:46.974Z,10.20
2019-03-21T23:40:17.000Z,10.13
2019-03-21T23:42:46.809Z,10.77
2019-03-21T23:45:16.540Z,11.17
2019-03-21T23:47:45.847Z,10.98
2019-03-21T23:50:16.890Z,11.05
2019-03-21T23:52:46.359Z,11.17
2019-03-21T23:55:16.156Z,11.20
2019-03-21T23:57:45.741Z,11.20
